createdAt,value
2019-06-20T00:00:34.290Z,13.88
2019-06-20T00:01:40.630Z,12.85
2019-06-20T00:02:47.649Z,16.07
2019-06-20T00:03:53.869Z,15.05
2019-06-20T00:05:00.857Z,12.47
2019-06-20T00:06:07.330Z,12.93
2019-06-20T00:07:14.369Z,12.70
2019-06-20T00:08:21.744Z,13.35
2019-06-20T00:09:28.789Z,11.15
2019-06-20T00:10:35.180Z,11.85
2019-06-20T00:11:42.182Z,12.15
2019-06-20T00:12:59.877Z,12.03
2019-06-20T00:13:58.871Z,11.70
2019-06-20T00:15:05.447Z,10.30
2019-06-20T00:16:12.446Z,11.48
2019-06-20T00:17:18.849Z,11.83
2019-06-20T00:18:26.788Z,10.82
2019-06-20T00:19:33.525Z,11.05
2019-06-20T00:20:40.550Z,13.30
2019-06-20T00:21:46.910Z,12.78
2019-06-20T00:22:53.784Z,12.28
2019-06-20T00:24:00.118Z,13.20
2019-06-20T00:25:07.267Z,15.75
2019-06-20T00:26:14.613Z,14.30
2019-06-20T00:27:21.438Z,13.08
2019-06-20T00:28:27.895Z,12.33
2019-06-20T00:29:34.648Z,12.58
2019-06-20T00:30:41.105Z,11.80
2019-06-20T00:31:47.881Z,11.53
2019-06-20T00:32:54.158Z,11.40
2019-06-20T00:34:00.982Z,12.28
2019-06-20T00:35:07.436Z,12.78
2019-06-20T00:36:14.595Z,13.95
2019-06-20T00:37:20.655Z,11.65
2019-06-20T00:38:27.627Z,13.50
2019-06-20T00:39:34.000Z,13.35
2019-06-20T00:40:40.871Z,11.83
2019-06-20T00:41:47.407Z,10.53
2019-06-20T00:42:54.369Z,11.93
2019-06-20T00:44:00.786Z,10.50
2019-06-20T00:45:07.932Z,11.57
2019-06-20T00:46:14.168Z,13.03
2019-06-20T00:47:21.027Z,10.82
2019-06-20T00:48:27.189Z,11.05
2019-06-20T00:49:33.784Z,12.37
2019-06-20T00:50:40.177Z,12.20
2019-06-20T00:51:47.126Z,13.70
2019-06-20T00:52:53.490Z,13.08
2019-06-20T00:54:00.293Z,11.95
2019-06-20T00:55:07.350Z,13.55
2019-06-20T00:56:14.299Z,14.13
2019-06-20T00:57:20.645Z,12.07
2019-06-20T00:58:27.832Z,13.20
2019-06-20T00:59:34.359Z,15.93
2019-06-20T01:00:41.310Z,14.68
2019-06-20T01:01:47.536Z,15.15
2019-06-20T01:02:54.567Z,11.50
2019-06-20T01:04:01.063Z,12.23
2019-06-20T01:05:08.241Z,14.55
2019-06-20T01:06:14.595Z,12.82
2019-06-20T01:07:21.479Z,13.88
2019-06-20T01:08:28.025Z,11.12
2019-06-20T01:09:35.059Z,10.80
2019-06-20T01:10:41.471Z,13.93
2019-06-20T01:11:49.485Z,15.70
2019-06-20T01:12:55.374Z,14.83
2019-06-20T01:14:02.321Z,11.28
2019-06-20T01:15:09.801Z,10.88
2019-06-20T01:16:17.957Z,14.43
2019-06-20T01:17:24.251Z,13.98
2019-06-20T01:18:31.099Z,14.13
2019-06-20T01:19:37.522Z,11.73
2019-06-20T01:20:44.679Z,14.63
2019-06-20T01:21:50.950Z,15.45
2019-06-20T01:22:57.946Z,13.83
2019-06-20T01:24:04.039Z,14.23
2019-06-20T01:25:11.307Z,11.30
2019-06-20T01:26:17.628Z,12.18
2019-06-20T01:27:24.559Z,12.47
2019-06-20T01:28:30.790Z,13.05
2019-06-20T01:29:37.711Z,10.38
2019-06-20T01:30:44.194Z,10.78
2019-06-20T01:31:51.179Z,12.15
2019-06-20T01:32:57.515Z,12.03
2019-06-20T01:34:04.370Z,12.88
2019-06-20T01:35:11.366Z,11.85
2019-06-20T01:36:18.228Z,10.95
2019-06-20T01:37:24.623Z,9.63
2019-06-20T01:38:31.671Z,13.45
2019-06-20T01:39:37.992Z,11.00
2019-06-20T01:40:44.759Z,10.58
2019-06-20T01:41:51.250Z,11.93
2019-06-20T01:42:58.259Z,14.93
2019-06-20T01:44:04.544Z,10.53
2019-06-20T01:45:12.095Z,10.78
2019-06-20T01:46:18.400Z,12.73
2019-06-20T01:47:25.383Z,12.43
2019-06-20T01:48:31.870Z,11.57
2019-06-20T01:49:38.679Z,10.53
2019-06-20T01:50:45.004Z,10.50
2019-06-20T01:51:52.018Z,9.63
2019-06-20T01:52:58.537Z,11.85
2019-06-20T01:54:05.491Z,10.72
2019-06-20T01:55:12.879Z,11.40
2019-06-20T01:56:19.881Z,11.73
2019-06-20T01:57:26.246Z,11.05
2019-06-20T01:58:33.236Z,17.60
2019-06-20T01:59:40.257Z,10.85
2019-06-20T02:00:49.330Z,10.08
2019-06-20T02:01:55.728Z,10.30
2019-06-20T02:03:02.761Z,11.08
2019-06-20T02:04:09.108Z,11.50
2019-06-20T02:05:16.542Z,10.30
2019-06-20T02:06:22.842Z,12.85
2019-06-20T02:07:31.173Z,10.58
2019-06-20T02:08:37.515Z,10.38
2019-06-20T02:09:44.457Z,12.28
2019-06-20T02:10:50.573Z,10.48
2019-06-20T02:11:57.160Z,9.68
2019-06-20T02:13:03.528Z,10.43
2019-06-20T02:14:10.526Z,9.75
2019-06-20T02:15:17.117Z,10.03
2019-06-20T02:16:24.120Z,10.03
2019-06-20T02:17:30.619Z,10.50
2019-06-20T02:18:37.519Z,10.20
2019-06-20T02:19:43.989Z,10.03
2019-06-20T02:20:53.494Z,10.60
2019-06-20T02:21:59.671Z,10.08
2019-06-20T02:23:06.679Z,11.20
2019-06-20T02:24:13.037Z,11.88
2019-06-20T02:25:19.930Z,9.58
2019-06-20T02:26:26.093Z,10.53
2019-06-20T02:27:32.921Z,10.43
2019-06-20T02:28:39.321Z,10.23
2019-06-20T02:29:46.308Z,10.30
2019-06-20T02:30:53.057Z,9.63
2019-06-20T02:32:00.056Z,12.95
2019-06-20T02:33:06.612Z,10.18
2019-06-20T02:34:13.222Z,11.22
2019-06-20T02:35:19.386Z,11.55
2019-06-20T02:36:26.289Z,10.70
2019-06-20T02:37:32.668Z,9.88
2019-06-20T02:38:40.640Z,10.32
2019-06-20T02:39:47.052Z,10.30
2019-06-20T02:40:54.082Z,9.40
2019-06-20T02:42:00.420Z,14.20
2019-06-20T02:43:07.952Z,10.70
2019-06-20T02:44:28.992Z,9.65
2019-06-20T02:45:23.151Z,9.78
2019-06-20T02:46:29.581Z,10.60
2019-06-20T02:47:36.522Z,10.78
2019-06-20T02:48:42.878Z,11.43
2019-06-20T02:49:49.731Z,10.68
2019-06-20T02:50:56.150Z,9.98
2019-06-20T02:52:03.995Z,9.90
2019-06-20T02:53:10.431Z,11.20
2019-06-20T02:54:17.784Z,10.93
2019-06-20T02:55:24.232Z,11.83
2019-06-20T02:56:31.169Z,12.40
2019-06-20T02:57:37.543Z,12.13
2019-06-20T02:58:44.525Z,12.55
2019-06-20T02:59:50.830Z,14.23
2019-06-20T03:00:59.332Z,11.15
2019-06-20T03:02:05.789Z,11.57
2019-06-20T03:03:12.789Z,12.82
2019-06-20T03:04:19.117Z,13.20
2019-06-20T03:05:27.004Z,20.32
2019-06-20T03:06:33.499Z,14.85
2019-06-20T03:07:40.427Z,12.07
2019-06-20T03:08:46.456Z,11.97
2019-06-20T03:09:53.526Z,13.43
2019-06-20T03:11:00.036Z,11.50
2019-06-20T03:12:06.994Z,16.25
2019-06-20T03:13:13.378Z,13.80
2019-06-20T03:14:20.307Z,11.73
2019-06-20T03:15:26.790Z,13.53
2019-06-20T03:16:33.669Z,11.85
2019-06-20T03:17:40.031Z,11.55
2019-06-20T03:18:46.978Z,13.28
2019-06-20T03:19:53.250Z,12.53
2019-06-20T03:21:00.155Z,13.18
2019-06-20T03:22:06.402Z,12.60
2019-06-20T03:23:13.356Z,13.40
2019-06-20T03:24:19.685Z,12.37
2019-06-20T03:25:26.642Z,15.48
2019-06-20T03:26:32.958Z,11.65
2019-06-20T03:27:39.870Z,14.90
2019-06-20T03:28:46.234Z,10.68
2019-06-20T03:29:54.199Z,12.47
2019-06-20T03:31:00.487Z,10.88
2019-06-20T03:32:07.373Z,10.98
2019-06-20T03:33:13.796Z,11.50
2019-06-20T03:34:20.418Z,12.90
2019-06-20T03:35:26.818Z,11.75
2019-06-20T03:36:33.648Z,10.95
2019-06-20T03:37:40.030Z,10.40
2019-06-20T03:38:47.164Z,12.35
2019-06-20T03:39:53.569Z,11.08
2019-06-20T03:41:00.542Z,9.63
2019-06-20T03:42:07.069Z,11.63
2019-06-20T03:43:14.091Z,11.22
2019-06-20T03:44:20.329Z,10.53
2019-06-20T03:45:27.258Z,9.75
2019-06-20T03:46:33.803Z,10.40
2019-06-20T03:47:40.672Z,10.90
2019-06-20T03:48:47.066Z,10.98
2019-06-20T03:49:53.819Z,9.95
2019-06-20T03:51:00.098Z,12.53
2019-06-20T03:52:06.881Z,10.13
2019-06-20T03:53:13.417Z,9.85
2019-06-20T03:54:20.409Z,10.75
2019-06-20T03:55:26.781Z,10.25
2019-06-20T03:56:33.572Z,10.15
2019-06-20T03:57:39.818Z,11.33
2019-06-20T03:58:46.807Z,10.78
2019-06-20T03:59:53.350Z,11.15
2019-06-20T04:01:00.361Z,11.33
2019-06-20T04:02:06.779Z,10.32
2019-06-20T04:03:13.861Z,11.85
2019-06-20T04:04:20.100Z,10.93
2019-06-20T04:05:27.087Z,9.80
2019-06-20T04:06:33.593Z,10.28
2019-06-20T04:07:40.541Z,11.93
2019-06-20T04:08:46.907Z,11.08
2019-06-20T04:09:53.885Z,13.50
2019-06-20T04:11:01.138Z,10.03
2019-06-20T04:12:07.995Z,11.73
2019-06-20T04:13:14.190Z,11.55
2019-06-20T04:14:21.140Z,10.23
2019-06-20T04:15:27.587Z,9.78
2019-06-20T04:16:34.567Z,12.35
2019-06-20T04:17:40.922Z,10.75
2019-06-20T04:18:47.922Z,9.58
2019-06-20T04:19:54.348Z,11.03
2019-06-20T04:21:01.574Z,10.70
2019-06-20T04:22:08.091Z,11.40
2019-06-20T04:23:15.027Z,10.45
2019-06-20T04:24:21.481Z,9.85
2019-06-20T04:25:28.450Z,11.10
2019-06-20T04:26:34.797Z,10.82
2019-06-20T04:27:41.805Z,10.50
2019-06-20T04:28:48.315Z,11.08
2019-06-20T04:29:55.131Z,9.33
2019-06-20T04:31:01.521Z,10.03
2019-06-20T04:32:08.245Z,9.60
2019-06-20T04:33:14.609Z,11.05
2019-06-20T04:34:21.701Z,12.23
2019-06-20T04:35:28.056Z,13.18
2019-06-20T04:36:34.896Z,11.55
2019-06-20T04:37:41.404Z,9.13
2019-06-20T04:38:48.288Z,9.28
2019-06-20T04:39:55.567Z,10.55
2019-06-20T04:41:02.579Z,10.45
2019-06-20T04:42:08.895Z,10.10
2019-06-20T04:43:16.470Z,9.38
2019-06-20T04:44:22.952Z,10.10
2019-06-20T04:45:54.499Z,9.47
2019-06-20T04:47:08.717Z,11.10
2019-06-20T04:48:15.995Z,10.20
2019-06-20T04:49:22.291Z,9.27
2019-06-20T04:50:29.288Z,9.85
2019-06-20T04:51:35.659Z,10.35
2019-06-20T04:52:42.582Z,9.53
2019-06-20T04:53:48.991Z,9.98
2019-06-20T04:54:55.928Z,9.85
2019-06-20T04:56:05.442Z,10.65
2019-06-20T04:57:10.693Z,12.15
2019-06-20T04:58:17.078Z,9.43
2019-06-20T04:59:23.979Z,9.90
2019-06-20T05:00:30.328Z,11.60
2019-06-20T05:01:37.251Z,11.78
2019-06-20T05:02:43.482Z,10.03
2019-06-20T05:03:51.462Z,9.65
2019-06-20T05:04:57.749Z,9.93
2019-06-20T05:06:04.728Z,9.70
2019-06-20T05:07:18.999Z,9.83
2019-06-20T05:08:26.094Z,8.57
2019-06-20T05:09:32.548Z,10.90
2019-06-20T05:10:39.550Z,12.60
2019-06-20T05:11:45.872Z,11.05
2019-06-20T05:12:55.808Z,10.67
2019-06-20T05:14:01.269Z,11.03
2019-06-20T05:15:08.795Z,13.33
2019-06-20T05:16:16.277Z,12.53
2019-06-20T05:17:23.492Z,10.68
2019-06-20T05:18:29.820Z,9.58
2019-06-20T05:19:36.898Z,10.03
2019-06-20T05:20:43.251Z,10.20
2019-06-20T05:21:50.076Z,10.07
2019-06-20T05:22:56.547Z,11.47
2019-06-20T05:24:03.247Z,10.93
2019-06-20T05:25:09.600Z,13.20
2019-06-20T05:26:16.530Z,11.77
2019-06-20T05:27:22.850Z,9.08
2019-06-20T05:28:29.840Z,11.73
2019-06-20T05:29:36.240Z,13.40
2019-06-20T05:30:43.155Z,9.67
2019-06-20T05:31:49.515Z,9.60
2019-06-20T05:32:56.397Z,12.50
2019-06-20T05:34:02.962Z,10.40
2019-06-20T05:35:09.871Z,11.83
2019-06-20T05:36:16.317Z,9.47
2019-06-20T05:37:23.267Z,10.23
2019-06-20T05:38:29.602Z,12.97
2019-06-20T05:39:36.483Z,9.13
2019-06-20T05:40:42.814Z,10.30
2019-06-20T05:41:49.791Z,11.33
2019-06-20T05:42:56.037Z,16.07
2019-06-20T05:44:03.024Z,9.97
2019-06-20T05:45:09.626Z,11.13
2019-06-20T05:46:16.420Z,9.37
2019-06-20T05:47:22.421Z,11.70
2019-06-20T05:48:30.011Z,12.73
2019-06-20T05:49:37.113Z,9.15
2019-06-20T05:50:44.131Z,10.55
2019-06-20T05:51:50.632Z,10.37
2019-06-20T05:52:57.626Z,14.00
2019-06-20T05:54:04.921Z,10.97
2019-06-20T05:55:12.097Z,10.03
2019-06-20T05:56:18.495Z,11.83
2019-06-20T05:57:25.619Z,12.37
2019-06-20T05:58:31.839Z,10.93
2019-06-20T05:59:38.450Z,9.93
2019-06-20T06:00:44.801Z,10.20
2019-06-20T06:01:51.793Z,11.90
2019-06-20T06:02:58.334Z,10.03
2019-06-20T06:04:05.539Z,10.97
2019-06-20T06:05:12.321Z,14.53
2019-06-20T06:06:19.380Z,10.00
2019-06-20T06:07:25.842Z,12.17
2019-06-20T06:08:32.752Z,10.13
2019-06-20T06:09:39.203Z,10.83
2019-06-20T06:10:45.849Z,10.40
2019-06-20T06:11:52.269Z,9.70
2019-06-20T06:12:59.244Z,10.47
2019-06-20T06:14:05.744Z,11.77
2019-06-20T06:15:13.032Z,10.07
2019-06-20T06:16:27.017Z,10.33
2019-06-20T06:17:28.063Z,11.73
2019-06-20T06:18:34.328Z,10.13
2019-06-20T06:19:41.231Z,10.50
2019-06-20T06:20:47.611Z,10.07
2019-06-20T06:21:54.576Z,18.13
2019-06-20T06:23:00.555Z,12.73
2019-06-20T06:24:07.714Z,9.93
2019-06-20T06:25:16.237Z,9.97
2019-06-20T06:26:23.137Z,11.63
2019-06-20T06:27:30.577Z,10.10
2019-06-20T06:28:37.602Z,10.20
2019-06-20T06:29:44.047Z,9.87
2019-06-20T06:30:51.019Z,15.03
2019-06-20T06:31:57.292Z,12.47
2019-06-20T06:33:04.188Z,9.83
2019-06-20T06:34:10.249Z,11.37
2019-06-20T06:35:17.620Z,11.27
2019-06-20T06:36:25.003Z,12.63
2019-06-20T06:37:31.999Z,9.50
2019-06-20T06:38:38.412Z,11.93
2019-06-20T06:39:46.256Z,11.30
2019-06-20T06:40:53.818Z,12.73
2019-06-20T06:42:00.975Z,11.80
2019-06-20T06:43:07.319Z,10.80
2019-06-20T06:44:14.258Z,10.13
2019-06-20T06:45:22.430Z,10.13
2019-06-20T06:46:42.888Z,10.13
2019-06-20T06:47:37.850Z,13.27
2019-06-20T06:48:45.736Z,10.77
2019-06-20T06:49:52.157Z,10.73
2019-06-20T06:50:59.317Z,10.40
2019-06-20T06:52:05.594Z,11.77
2019-06-20T06:53:13.583Z,15.27
2019-06-20T06:54:20.012Z,12.27
2019-06-20T06:55:27.797Z,12.17
2019-06-20T06:56:34.291Z,12.13
2019-06-20T06:57:41.320Z,10.83
2019-06-20T06:58:47.675Z,11.07
2019-06-20T06:59:55.887Z,14.47
2019-06-20T07:01:02.509Z,10.47
2019-06-20T07:02:09.931Z,13.43
2019-06-20T07:03:16.287Z,12.30
2019-06-20T07:04:23.354Z,13.10
2019-06-20T07:05:29.675Z,11.37
2019-06-20T07:06:36.670Z,11.20
2019-06-20T07:07:42.892Z,11.00
2019-06-20T07:08:50.011Z,12.03
2019-06-20T07:09:56.380Z,16.40
2019-06-20T07:11:03.382Z,19.03
2019-06-20T07:12:09.981Z,12.40
2019-06-20T07:13:17.071Z,14.37
2019-06-20T07:14:23.437Z,11.03
2019-06-20T07:15:30.720Z,10.63
2019-06-20T07:16:37.114Z,11.33
2019-06-20T07:17:44.141Z,11.83
2019-06-20T07:18:51.046Z,11.27
2019-06-20T07:19:58.142Z,11.63
2019-06-20T07:21:04.556Z,10.83
2019-06-20T07:22:11.727Z,10.53
2019-06-20T07:23:18.067Z,11.43
2019-06-20T07:24:24.966Z,12.67
2019-06-20T07:25:31.415Z,11.87
2019-06-20T07:26:38.464Z,14.90
2019-06-20T07:27:45.856Z,12.07
2019-06-20T07:28:52.878Z,13.07
2019-06-20T07:29:59.327Z,11.37
2019-06-20T07:31:06.036Z,11.63
2019-06-20T07:32:12.368Z,10.40
2019-06-20T07:33:19.345Z,11.03
2019-06-20T07:34:25.710Z,12.07
2019-06-20T07:35:32.746Z,11.90
2019-06-20T07:36:39.040Z,12.70
2019-06-20T07:37:46.079Z,12.90
2019-06-20T07:38:52.509Z,11.90
2019-06-20T07:40:00.879Z,12.43
2019-06-20T07:41:07.431Z,14.23
2019-06-20T07:42:14.667Z,11.57
2019-06-20T07:43:20.734Z,10.80
2019-06-20T07:44:27.623Z,13.00
2019-06-20T07:45:34.112Z,11.80
2019-06-20T07:46:41.233Z,10.57
2019-06-20T07:47:47.485Z,10.67
2019-06-20T07:48:54.476Z,15.30
2019-06-20T07:50:01.096Z,12.87
2019-06-20T07:51:08.101Z,11.47
2019-06-20T07:52:15.714Z,11.10
2019-06-20T07:53:22.866Z,10.97
2019-06-20T07:54:29.057Z,12.07
2019-06-20T07:55:36.014Z,11.67
2019-06-20T07:56:43.414Z,11.63
2019-06-20T07:57:50.535Z,13.07
2019-06-20T07:58:56.939Z,11.33
2019-06-20T08:00:04.105Z,17.90
2019-06-20T08:01:10.452Z,12.17
2019-06-20T08:02:17.477Z,12.47
2019-06-20T08:03:23.869Z,10.90
2019-06-20T08:04:30.811Z,11.07
2019-06-20T08:05:37.196Z,13.03
2019-06-20T08:06:44.283Z,12.53
2019-06-20T08:07:50.790Z,10.47
2019-06-20T08:08:57.669Z,12.77
2019-06-20T08:10:04.799Z,11.60
2019-06-20T08:11:13.069Z,11.23
2019-06-20T08:12:19.764Z,15.43
2019-06-20T08:13:26.670Z,15.63
2019-06-20T08:14:33.051Z,11.37
2019-06-20T08:15:39.881Z,13.87
2019-06-20T08:16:46.169Z,11.13
2019-06-20T08:17:52.745Z,12.73
2019-06-20T08:18:59.269Z,11.83
2019-06-20T08:20:07.427Z,12.93
2019-06-20T08:21:13.679Z,12.40
2019-06-20T08:22:20.703Z,11.37
2019-06-20T08:23:27.137Z,13.77
2019-06-20T08:24:34.132Z,14.47
2019-06-20T08:25:40.639Z,10.63
2019-06-20T08:26:47.884Z,11.70
2019-06-20T08:27:54.201Z,12.33
2019-06-20T08:29:16.120Z,12.10
2019-06-20T08:30:10.119Z,13.87
2019-06-20T08:31:17.131Z,11.13
2019-06-20T08:32:23.482Z,10.63
2019-06-20T08:33:30.262Z,12.60
2019-06-20T08:34:36.606Z,14.53
2019-06-20T08:35:43.699Z,11.60
2019-06-20T08:36:50.117Z,14.23
2019-06-20T08:37:57.825Z,12.03
2019-06-20T08:39:09.302Z,14.43
2019-06-20T08:40:16.585Z,11.47
2019-06-20T08:41:23.398Z,16.83
2019-06-20T08:42:30.388Z,16.63
2019-06-20T08:43:36.974Z,13.13
2019-06-20T08:44:44.138Z,13.50
2019-06-20T08:45:50.867Z,14.57
2019-06-20T08:46:59.227Z,12.50
2019-06-20T08:48:07.425Z,12.27
2019-06-20T08:49:14.507Z,11.57
2019-06-20T08:50:21.201Z,16.57
2019-06-20T08:51:28.122Z,12.17
2019-06-20T08:52:34.647Z,11.87
2019-06-20T08:53:41.631Z,13.67
2019-06-20T08:54:48.276Z,11.47
2019-06-20T08:55:56.329Z,13.83
2019-06-20T08:57:05.897Z,12.43
2019-06-20T08:58:13.228Z,16.27
2019-06-20T08:59:24.436Z,13.03
2019-06-20T09:00:28.970Z,11.63
2019-06-20T09:01:35.340Z,13.80
2019-06-20T09:02:42.448Z,12.67
2019-06-20T09:03:49.440Z,16.23
2019-06-20T09:04:56.536Z,11.97
2019-06-20T09:07:10.173Z,11.23
2019-06-20T09:08:16.533Z,13.33
2019-06-20T09:09:23.556Z,11.20
2019-06-20T09:10:42.396Z,13.97
2019-06-20T09:11:49.938Z,12.37
2019-06-20T09:12:57.049Z,11.80
2019-06-20T09:14:04.375Z,12.53
2019-06-20T09:15:10.956Z,11.47
2019-06-20T09:16:24.488Z,13.97
2019-06-20T09:17:26.110Z,12.40
2019-06-20T09:18:33.274Z,13.13
2019-06-20T09:19:39.690Z,13.33
2019-06-20T09:20:46.821Z,12.10
2019-06-20T09:21:54.178Z,11.47
2019-06-20T09:23:01.337Z,13.13
2019-06-20T09:24:07.698Z,11.40
2019-06-20T09:25:14.717Z,13.40
2019-06-20T09:26:21.265Z,13.90
2019-06-20T09:27:28.516Z,14.07
2019-06-20T09:28:34.776Z,11.77
2019-06-20T09:29:42.194Z,13.50
2019-06-20T09:30:48.567Z,12.93
2019-06-20T09:31:55.713Z,14.93
2019-06-20T09:33:04.207Z,11.57
2019-06-20T09:34:11.210Z,11.17
2019-06-20T09:35:17.587Z,11.60
2019-06-20T09:36:24.883Z,20.50
2019-06-20T09:37:31.243Z,17.77
2019-06-20T09:38:38.311Z,12.63
2019-06-20T09:39:44.955Z,12.13
2019-06-20T09:40:53.020Z,13.23
2019-06-20T09:41:59.600Z,13.00
2019-06-20T09:43:07.054Z,13.37
2019-06-20T09:44:13.748Z,15.20
2019-06-20T09:45:21.073Z,14.27
2019-06-20T09:46:27.736Z,15.23
2019-06-20T09:47:34.604Z,13.50
2019-06-20T09:48:41.118Z,16.13
2019-06-20T09:49:50.629Z,13.90
2019-06-20T09:50:57.022Z,14.43
2019-06-20T09:52:04.322Z,14.23
2019-06-20T09:53:10.775Z,13.97
2019-06-20T09:54:17.924Z,13.20
2019-06-20T09:55:24.386Z,14.80
2019-06-20T09:56:31.396Z,19.03
2019-06-20T09:57:37.987Z,18.53
2019-06-20T09:58:45.050Z,13.67
2019-06-20T10:00:02.745Z,13.10
2019-06-20T10:01:00.022Z,13.10
2019-06-20T10:02:06.802Z,14.27
2019-06-20T10:03:15.320Z,15.13
2019-06-20T10:04:22.246Z,13.73
2019-06-20T10:05:29.435Z,13.03
2019-06-20T10:06:36.200Z,13.77
2019-06-20T10:07:42.946Z,13.80
2019-06-20T10:08:50.075Z,14.33
2019-06-20T10:09:57.048Z,13.93
2019-06-20T10:11:03.856Z,17.40
2019-06-20T10:12:11.033Z,17.10
2019-06-20T10:13:17.616Z,13.57
2019-06-20T10:14:25.371Z,12.87
2019-06-20T10:15:34.131Z,18.03
2019-06-20T10:16:45.636Z,15.27
2019-06-20T10:17:50.067Z,12.67
2019-06-20T10:18:58.602Z,12.70
2019-06-20T10:20:05.796Z,13.93
2019-06-20T10:21:12.839Z,14.27
2019-06-20T10:22:19.402Z,14.00
2019-06-20T10:23:26.962Z,13.40
2019-06-20T10:24:34.212Z,13.53
2019-06-20T10:25:41.365Z,14.63
2019-06-20T10:26:48.302Z,13.87
2019-06-20T10:27:57.988Z,13.47
2019-06-20T10:29:04.628Z,13.37
2019-06-20T10:30:14.797Z,13.87
2019-06-20T10:31:21.517Z,12.20
2019-06-20T10:32:28.801Z,15.40
2019-06-20T10:33:35.330Z,14.13
2019-06-20T10:34:42.427Z,13.13
2019-06-20T10:35:48.843Z,14.27
2019-06-20T10:36:57.081Z,12.97
2019-06-20T10:38:03.596Z,12.87
2019-06-20T10:39:12.639Z,16.50
2019-06-20T10:40:19.796Z,13.67
2019-06-20T10:41:28.241Z,13.33
2019-06-20T10:42:34.775Z,14.60
2019-06-20T10:43:42.996Z,12.07
2019-06-20T10:44:50.035Z,13.43
2019-06-20T10:45:56.974Z,12.17
2019-06-20T10:47:03.400Z,15.57
2019-06-20T10:48:10.561Z,12.50
2019-06-20T10:49:17.322Z,13.33
2019-06-20T10:50:24.964Z,21.63
2019-06-20T10:51:45.925Z,12.20
2019-06-20T10:52:53.493Z,12.00
2019-06-20T10:54:00.465Z,11.57
2019-06-20T10:55:09.608Z,12.10
2019-06-20T10:56:16.071Z,11.40
2019-06-20T10:57:23.100Z,12.30
2019-06-20T10:58:29.317Z,11.30
2019-06-20T10:59:36.389Z,12.60
2019-06-20T11:00:44.300Z,12.67
2019-06-20T11:01:51.914Z,12.03
2019-06-20T11:02:58.334Z,10.83
2019-06-20T11:04:05.721Z,12.70
2019-06-20T11:05:12.744Z,11.13
2019-06-20T11:06:19.895Z,11.57
2019-06-20T11:07:27.770Z,12.23
2019-06-20T11:08:34.918Z,15.53
2019-06-20T11:09:41.300Z,10.83
2019-06-20T11:10:49.256Z,10.97
2019-06-20T11:11:56.737Z,11.87
2019-06-20T11:13:03.797Z,21.07
2019-06-20T11:14:10.337Z,9.70
2019-06-20T11:15:18.247Z,10.00
2019-06-20T11:16:24.854Z,10.57
2019-06-20T11:17:31.818Z,8.90
2019-06-20T11:18:39.699Z,9.67
2019-06-20T11:19:48.079Z,10.07
2019-06-20T11:20:54.259Z,10.07
2019-06-20T11:22:01.245Z,13.60
2019-06-20T11:23:07.663Z,9.50
2019-06-20T11:24:15.297Z,10.47
2019-06-20T11:25:22.050Z,9.73
2019-06-20T11:26:29.237Z,9.37
2019-06-20T11:27:37.087Z,9.23
2019-06-20T11:28:44.779Z,10.90
2019-06-20T11:29:51.973Z,9.50
2019-06-20T11:31:00.548Z,14.70
2019-06-20T11:32:07.215Z,10.33
2019-06-20T11:33:14.407Z,11.60
2019-06-20T11:34:20.960Z,8.90
2019-06-20T11:35:28.256Z,10.03
2019-06-20T11:36:36.984Z,10.00
2019-06-20T11:37:44.769Z,8.87
2019-06-20T11:38:51.814Z,10.53
2019-06-20T11:39:58.962Z,7.50
2019-06-20T11:41:05.505Z,8.00
2019-06-20T11:42:12.389Z,8.27
2019-06-20T11:43:18.524Z,7.93
2019-06-20T11:44:25.773Z,8.10
2019-06-20T11:45:32.253Z,10.67
2019-06-20T11:46:40.612Z,7.37
2019-06-20T11:47:47.464Z,8.07
2019-06-20T11:48:54.440Z,13.33
2019-06-20T11:50:00.934Z,9.97
2019-06-20T11:51:07.875Z,9.93
2019-06-20T11:52:17.713Z,6.50
2019-06-20T11:53:24.869Z,6.63
2019-06-20T11:54:32.731Z,6.50
2019-06-20T11:55:39.687Z,6.63
2019-06-20T11:56:46.110Z,6.27
2019-06-20T11:57:53.438Z,8.20
2019-06-20T11:58:59.723Z,5.73
2019-06-20T12:00:07.520Z,5.47
2019-06-20T12:01:15.205Z,5.73
2019-06-20T12:02:22.363Z,8.10
2019-06-20T12:03:29.086Z,5.77
2019-06-20T12:04:36.119Z,5.73
2019-06-20T12:05:43.265Z,5.97
2019-06-20T12:06:50.533Z,5.30
2019-06-20T12:07:57.205Z,7.40
2019-06-20T12:09:04.443Z,5.40
2019-06-20T12:10:11.935Z,4.60
2019-06-20T12:11:18.935Z,7.60
2019-06-20T12:12:25.488Z,4.57
2019-06-20T12:13:32.650Z,4.80
2019-06-20T12:14:41.048Z,4.03
2019-06-20T12:15:49.031Z,4.13
2019-06-20T12:16:56.693Z,4.80
2019-06-20T12:18:03.842Z,4.83
2019-06-20T12:19:10.439Z,4.87
2019-06-20T12:20:19.239Z,3.57
2019-06-20T12:21:25.917Z,2.37
2019-06-20T12:22:32.927Z,3.20
2019-06-20T12:23:40.587Z,5.37
2019-06-20T12:24:48.879Z,2.77
2019-06-20T12:25:55.322Z,2.80
2019-06-20T12:27:02.032Z,3.00
2019-06-20T12:28:08.686Z,3.20
2019-06-20T12:29:15.746Z,3.00
2019-06-20T12:30:22.851Z,3.50
2019-06-20T12:31:30.267Z,3.10
2019-06-20T12:32:36.713Z,3.10
2019-06-20T12:33:45.092Z,3.00
2019-06-20T12:34:51.907Z,3.97
2019-06-20T12:35:59.084Z,5.93
2019-06-20T12:37:05.590Z,4.73
2019-06-20T12:38:15.140Z,3.70
2019-06-20T12:39:20.569Z,2.87
2019-06-20T12:40:27.825Z,2.97
2019-06-20T12:41:36.009Z,3.63
2019-06-20T12:42:43.550Z,3.40
2019-06-20T12:43:51.404Z,3.03
2019-06-20T12:44:58.645Z,3.60
2019-06-20T12:46:05.755Z,3.13
2019-06-20T12:47:13.105Z,3.73
2019-06-20T12:48:19.657Z,5.87
2019-06-20T12:49:26.755Z,3.40
2019-06-20T12:50:33.320Z,3.70
2019-06-20T12:51:42.025Z,3.80
2019-06-20T12:52:49.699Z,4.73
2019-06-20T12:53:56.921Z,4.00
2019-06-20T12:55:03.492Z,4.03
2019-06-20T12:56:10.512Z,4.17
2019-06-20T12:57:17.232Z,5.47
2019-06-20T12:58:24.379Z,3.60
2019-06-20T12:59:30.876Z,3.80
2019-06-20T13:00:39.575Z,3.77
2019-06-20T13:01:48.377Z,4.33
2019-06-20T13:02:55.172Z,5.10
2019-06-20T13:04:01.491Z,3.53
2019-06-20T13:05:08.978Z,4.57
2019-06-20T13:06:15.542Z,4.30
2019-06-20T13:07:22.759Z,4.00
2019-06-20T13:08:30.325Z,3.57
2019-06-20T13:09:39.065Z,4.40
2019-06-20T13:10:46.164Z,4.70
2019-06-20T13:11:53.477Z,4.87
2019-06-20T13:13:00.254Z,4.53
2019-06-20T13:14:07.470Z,4.20
2019-06-20T13:15:15.296Z,3.87
2019-06-20T13:16:22.440Z,4.13
2019-06-20T13:17:28.839Z,3.53
2019-06-20T13:18:37.192Z,3.63
2019-06-20T13:19:44.389Z,5.93
2019-06-20T13:20:51.714Z,3.40
2019-06-20T13:21:58.029Z,8.93
2019-06-20T13:23:05.194Z,3.50
2019-06-20T13:24:11.575Z,4.37
2019-06-20T13:25:18.599Z,4.27
2019-06-20T13:26:24.891Z,4.77
2019-06-20T13:27:32.018Z,3.53
2019-06-20T13:28:54.063Z,3.73
2019-06-20T13:29:47.602Z,6.70
2019-06-20T13:30:54.168Z,4.37
2019-06-20T13:32:04.403Z,3.40
2019-06-20T13:33:09.166Z,4.00
2019-06-20T13:34:16.168Z,4.57
2019-06-20T13:35:22.690Z,3.73
2019-06-20T13:36:29.808Z,5.20
2019-06-20T13:37:38.452Z,4.17
2019-06-20T13:38:46.680Z,3.83
2019-06-20T13:39:53.159Z,5.47
2019-06-20T13:41:00.159Z,3.50
2019-06-20T13:42:06.736Z,3.80
2019-06-20T13:43:13.402Z,7.23
2019-06-20T13:44:19.815Z,4.30
2019-06-20T13:45:27.847Z,3.93
2019-06-20T13:46:34.237Z,3.83
2019-06-20T13:47:41.536Z,3.43
2019-06-20T13:48:47.890Z,4.33
2019-06-20T13:49:55.047Z,3.07
2019-06-20T13:51:01.629Z,5.07
2019-06-20T13:52:08.849Z,3.10
2019-06-20T13:53:15.575Z,3.17
2019-06-20T13:54:22.931Z,4.47
2019-06-20T13:55:29.543Z,3.00
2019-06-20T13:56:36.475Z,3.70
2019-06-20T13:57:43.544Z,5.53
2019-06-20T13:58:51.714Z,3.00
2019-06-20T13:59:58.171Z,3.03
2019-06-20T14:01:05.522Z,3.83
2019-06-20T14:02:12.261Z,3.30
2019-06-20T14:03:19.615Z,2.80
2019-06-20T14:04:26.184Z,2.93
2019-06-20T14:05:33.282Z,2.93
2019-06-20T14:06:42.058Z,4.67
2019-06-20T14:07:53.235Z,2.83
2019-06-20T14:08:57.817Z,4.33
2019-06-20T14:10:05.684Z,4.43
2019-06-20T14:11:12.328Z,2.90
2019-06-20T14:12:19.421Z,3.50
2019-06-20T14:13:26.259Z,4.80
2019-06-20T14:14:33.531Z,2.67
2019-06-20T14:15:42.650Z,4.07
2019-06-20T14:16:48.738Z,3.23
2019-06-20T14:17:55.312Z,2.57
2019-06-20T14:19:02.407Z,2.87
2019-06-20T14:20:10.712Z,2.73
2019-06-20T14:21:17.891Z,3.13
2019-06-20T14:22:24.573Z,2.70
2019-06-20T14:23:31.975Z,3.17
2019-06-20T14:24:38.516Z,3.03
2019-06-20T14:25:46.310Z,4.00
2019-06-20T14:26:54.469Z,3.77
2019-06-20T14:28:02.946Z,3.27
2019-06-20T14:29:09.602Z,3.93
2019-06-20T14:30:17.169Z,6.10
2019-06-20T14:31:23.611Z,4.43
2019-06-20T14:32:30.700Z,3.13